Coconut Creek, Florida
Current Conditions -  °F | °C
As of 5:17 AM on Friday 24 Oct 2014 (Local Time) from KFXE Reporting Station
Overcast Overcast  
Wind Chill: 78°   Ceiling: 2800
Heat Index: 80°   Visibility: 10mi
Dew Point: 68°   Wind: 14mph
Humidity: 71%   Direction: 50°NE
Pressure: 29.84"   Gusts: NA
Location:  26.26°N, 80.19°W
Report Text: KFXE 240917Z 05012KT 10SM BKN028 OVC039 26/20 A2984 RMK AO2 T02560200
Loading
Personal Weather Stations






























Interactive Weather Map
Tropical Storm Tracking
New forecast layout! Learn more

10-Day Weather Forecast

Advertisements
Track Severe Weather on mobile